createdAt,value
2022-09-12T00:01:37.916Z,99103.13
2022-09-12T00:04:06.811Z,99099.03
2022-09-12T00:06:38.461Z,99098.78
2022-09-12T00:09:12.333Z,99104.19
2022-09-12T00:11:44.325Z,99099.84
2022-09-12T00:14:19.291Z,99103.13
2022-09-12T00:16:48.568Z,99094.75
2022-09-12T00:19:17.262Z,99100.13
2022-09-12T00:21:45.890Z,99095.81
2022-09-12T00:24:15.930Z,99100.13
2022-09-12T00:26:44.740Z,99097.97
2022-09-12T00:29:18.163Z,99099.03
2022-09-12T00:31:47.560Z,99101.47
2022-09-12T00:34:16.271Z,99103.88
2022-09-12T00:36:45.024Z,99102.78
2022-09-12T00:39:18.220Z,99099.00
2022-09-12T00:41:47.378Z,99090.88
2022-09-12T00:44:52.602Z,99094.66
2022-09-12T00:47:29.334Z,99087.63
2022-09-12T00:50:07.521Z,99086.28
2022-09-12T00:52:41.718Z,99084.91
2022-09-12T00:55:16.954Z,99087.84
2022-09-12T00:57:53.522Z,99081.88
2022-09-12T01:00:25.712Z,99081.88
2022-09-12T01:02:59.821Z,99080.53
2022-09-12T01:05:30.847Z,99081.06
2022-09-12T01:08:01.839Z,99086.44
2022-09-12T01:10:34.329Z,99083.50
2022-09-12T01:13:06.279Z,99081.63
2022-09-12T01:15:35.967Z,99076.22
2022-09-12T01:18:22.024Z,99077.53
2022-09-12T01:21:25.949Z,99075.94
2022-09-12T01:24:44.061Z,99075.66
2022-09-12T01:27:55.755Z,99075.41
2022-09-12T01:30:51.673Z,99077.28
2022-09-12T01:33:39.159Z,99078.91
2022-09-12T01:36:34.870Z,99075.16
2022-09-12T01:39:07.318Z,99077.53
2022-09-12T01:41:54.013Z,99070.22
2022-09-12T01:44:38.740Z,99064.03
2022-09-12T01:47:16.510Z,99062.94
2022-09-12T01:49:59.966Z,99064.25
2022-09-12T01:52:39.625Z,99068.34
2022-09-12T01:55:16.247Z,99067.00
2022-09-12T01:57:53.835Z,99069.41
2022-09-12T02:00:22.638Z,99067.53
2022-09-12T02:02:58.722Z,99059.44
2022-09-12T02:05:34.420Z,99058.38
2022-09-12T02:08:10.552Z,99060.28
2022-09-12T02:10:48.434Z,99052.41
2022-09-12T02:13:25.445Z,99045.69
2022-09-12T02:16:01.710Z,99045.69
2022-09-12T02:18:35.566Z,99051.34
2022-09-12T02:21:09.283Z,99057.25
2022-09-12T02:23:46.335Z,99051.28
2022-09-12T02:26:24.170Z,99051.56
2022-09-12T02:28:54.457Z,99051.28
2022-09-12T02:31:31.493Z,99047.50
2022-09-12T02:34:15.155Z,99047.19
2022-09-12T02:36:56.112Z,99042.03
2022-09-12T02:39:24.828Z,99048.78
2022-09-12T02:41:56.623Z,99047.44
2022-09-12T02:44:28.250Z,99053.38
2022-09-12T02:47:03.958Z,99050.41
2022-09-12T02:49:34.205Z,99059.28
2022-09-12T02:52:04.012Z,99052.81
2022-09-12T02:54:33.512Z,99052.81
2022-09-12T02:57:02.229Z,99047.44
2022-09-12T02:59:31.071Z,99048.25
2022-09-12T03:02:21.355Z,99054.47
2022-09-12T03:05:18.556Z,99046.38
2022-09-12T03:08:25.599Z,99046.13
2022-09-12T03:11:23.177Z,99046.94
2022-09-12T03:14:07.325Z,99042.34
2022-09-12T03:16:46.417Z,99050.69
2022-09-12T03:19:25.543Z,99048.56
2022-09-12T03:22:09.828Z,99041.00
2022-09-12T03:24:49.313Z,99048.03
2022-09-12T03:27:23.635Z,99044.28
2022-09-12T03:29:53.708Z,99053.16
2022-09-12T03:32:42.638Z,99046.16
2022-09-12T03:35:13.735Z,99046.38
2022-09-12T03:37:44.442Z,99048.28
2022-09-12T03:40:13.864Z,99049.63
2022-09-12T03:42:43.093Z,99044.78
2022-09-12T03:45:12.723Z,99043.69
2022-09-12T03:47:42.518Z,99045.34
2022-09-12T03:50:11.951Z,99041.28
2022-09-12T03:52:41.251Z,99048.03
2022-09-12T03:55:11.985Z,99042.66
2022-09-12T03:57:40.667Z,99050.47
2022-09-12T04:00:11.123Z,99051.28
2022-09-12T04:02:42.414Z,99053.72
2022-09-12T04:05:11.187Z,99054.47
2022-09-12T04:07:39.774Z,99055.03
2022-09-12T04:10:10.855Z,99061.19
2022-09-12T04:12:39.867Z,99056.91
2022-09-12T04:15:10.719Z,99049.09
2022-09-12T04:17:39.592Z,99053.91
2022-09-12T04:20:09.160Z,99047.44
2022-09-12T04:22:37.872Z,99047.19
2022-09-12T04:25:07.914Z,99054.47
2022-09-12T04:27:38.058Z,99048.00
2022-09-12T04:30:09.003Z,99058.53
2022-09-12T04:32:37.929Z,99050.69
2022-09-12T04:35:07.183Z,99052.31
2022-09-12T04:37:36.187Z,99049.09
2022-09-12T04:40:05.667Z,99052.31
2022-09-12T04:42:34.350Z,99049.34
2022-09-12T04:45:06.303Z,99053.94
2022-09-12T04:47:34.861Z,99053.63
2022-09-12T04:50:06.485Z,99052.31
2022-09-12T04:52:35.037Z,99060.09
2022-09-12T04:55:03.634Z,99067.69
2022-09-12T04:57:32.221Z,99056.63
2022-09-12T05:00:07.019Z,99055.56
2022-09-12T05:02:37.262Z,99063.66
2022-09-12T05:05:06.907Z,99057.19
2022-09-12T05:07:35.602Z,99053.94
2022-09-12T05:10:05.180Z,99055.56
2022-09-12T05:12:34.009Z,99060.69
2022-09-12T05:15:02.638Z,99059.88
2022-09-12T05:17:31.453Z,99066.91
2022-09-12T05:20:01.900Z,99063.38
2022-09-12T05:22:30.503Z,99064.75
2022-09-12T05:24:59.065Z,99065.84
2022-09-12T05:27:27.635Z,99067.72
2022-09-12T05:29:56.172Z,99069.88
2022-09-12T05:32:24.764Z,99068.56
2022-09-12T05:34:53.438Z,99071.81
2022-09-12T05:37:23.901Z,99078.81
2022-09-12T05:39:52.963Z,99073.97
2022-09-12T05:42:21.658Z,99083.72
2022-09-12T05:44:50.293Z,99080.75
2022-09-12T05:47:19.313Z,99082.91
2022-09-12T05:49:48.178Z,99082.66
2022-09-12T05:52:17.196Z,99089.16
2022-09-12T05:54:47.624Z,99093.47
2022-09-12T05:57:16.239Z,99091.88
2022-09-12T05:59:45.406Z,99096.75
2022-09-12T06:02:14.078Z,99094.59
2022-09-12T06:04:42.689Z,99095.94
2022-09-12T06:07:11.448Z,99099.22
2022-09-12T06:09:40.002Z,99096.53
2022-09-12T06:12:10.112Z,99089.78
2022-09-12T06:14:38.934Z,99096.56
2022-09-12T06:17:07.874Z,99097.91
2022-09-12T06:19:36.502Z,99093.84
2022-09-12T06:22:05.364Z,99099.00
2022-09-12T06:24:33.960Z,99097.38
2022-09-12T06:27:02.819Z,99105.78
2022-09-12T06:29:33.101Z,99111.44
2022-09-12T06:32:01.913Z,99100.94
2022-09-12T06:34:31.052Z,99101.25
2022-09-12T06:36:59.681Z,99089.91
2022-09-12T06:39:28.282Z,99098.06
2022-09-12T06:41:57.009Z,99102.94
2022-09-12T06:44:37.452Z,99103.22
2022-09-12T06:47:06.288Z,99101.34
2022-09-12T06:49:35.556Z,99106.22
2022-09-12T06:52:04.454Z,99111.09
2022-09-12T06:54:32.982Z,99111.38
2022-09-12T06:57:02.470Z,99106.22
2022-09-12T06:59:31.078Z,99111.94
2022-09-12T07:02:01.329Z,99117.59
2022-09-12T07:04:30.514Z,99113.84
2022-09-12T07:06:59.100Z,99107.88
2022-09-12T07:09:27.828Z,99112.50
2022-09-12T07:11:56.410Z,99108.44
2022-09-12T07:14:26.113Z,99112.78
2022-09-12T07:16:54.782Z,99116.84
2022-09-12T07:19:25.015Z,99119.81
2022-09-12T07:21:58.007Z,99133.59
2022-09-12T07:24:27.368Z,99126.31
2022-09-12T07:26:56.235Z,99123.59
2022-09-12T07:29:36.479Z,99127.38
2022-09-12T07:32:07.743Z,99123.06
2022-09-12T07:34:38.153Z,99126.84
2022-09-12T07:37:06.909Z,99121.97
2022-09-12T07:39:35.443Z,99123.34
2022-09-12T07:42:04.034Z,99119.84
2022-09-12T07:44:32.803Z,99121.75
2022-09-12T07:47:02.103Z,99124.72
2022-09-12T07:49:30.734Z,99124.19
2022-09-12T07:52:00.727Z,99128.50
2022-09-12T07:54:29.293Z,99125.25
2022-09-12T07:56:57.833Z,99132.03
2022-09-12T07:59:50.831Z,99125.25
2022-09-12T08:02:17.461Z,99127.41
2022-09-12T08:04:48.384Z,99127.97
2022-09-12T08:07:19.543Z,99127.16
2022-09-12T08:09:48.575Z,99130.16
2022-09-12T08:12:18.008Z,99135.28
2022-09-12T08:14:46.594Z,99132.28
2022-09-12T08:17:15.567Z,99131.50
2022-09-12T08:19:44.976Z,99139.59
2022-09-12T08:22:13.872Z,99145.28
2022-09-12T08:24:44.529Z,99139.31
2022-09-12T08:27:13.272Z,99142.59
2022-09-12T08:29:42.386Z,99135.00
2022-09-12T08:32:11.038Z,99139.06
2022-09-12T08:34:39.639Z,99136.91
2022-09-12T08:37:08.429Z,99140.94
2022-09-12T08:39:37.165Z,99132.47
2022-09-12T08:42:08.387Z,99130.50
2022-09-12T08:45:15.361Z,99134.25
2022-09-12T08:47:48.101Z,99131.31
2022-09-12T08:50:20.287Z,99133.13
2022-09-12T08:52:58.698Z,99121.06
2022-09-12T08:55:36.466Z,99123.44
2022-09-12T08:58:16.206Z,99124.34
2022-09-12T09:00:59.564Z,99127.63
2022-09-12T09:03:57.889Z,99126.75
2022-09-12T09:07:04.259Z,99130.44
2022-09-12T09:09:52.848Z,99122.94
2022-09-12T09:12:36.558Z,99119.56
2022-09-12T09:15:41.246Z,99120.16
2022-09-12T09:18:19.839Z,99118.06
2022-09-12T09:20:54.860Z,99129.84
2022-09-12T09:23:30.976Z,99119.44
2022-09-12T09:26:07.259Z,99122.63
2022-09-12T09:28:43.612Z,99117.78
2022-09-12T09:31:17.647Z,99107.69
2022-09-12T09:33:51.056Z,99108.81
2022-09-12T09:36:25.296Z,99106.56
2022-09-12T09:39:05.919Z,99109.72
2022-09-12T09:41:55.712Z,99108.34
2022-09-12T09:44:24.957Z,99106.06
2022-09-12T09:47:00.039Z,99102.03
2022-09-12T09:49:32.992Z,99109.00
2022-09-12T09:52:02.960Z,99106.34
2022-09-12T09:54:40.554Z,99105.41
2022-09-12T09:57:44.790Z,99104.47
2022-09-12T10:00:32.077Z,99099.09
2022-09-12T10:03:11.333Z,99095.75
2022-09-12T10:05:50.239Z,99096.03
2022-09-12T10:08:24.976Z,99085.66
2022-09-12T10:11:05.092Z,99095.09
2022-09-12T10:13:42.841Z,99081.75
2022-09-12T10:16:23.162Z,99084.25
2022-09-12T10:18:57.426Z,99087.84
2022-09-12T10:21:41.336Z,99084.09
2022-09-12T10:24:26.830Z,99087.94
2022-09-12T10:27:07.005Z,99088.91
2022-09-12T10:29:44.070Z,99094.56
2022-09-12T10:32:16.258Z,99089.88
2022-09-12T10:34:47.703Z,99095.59
2022-09-12T10:37:27.687Z,99090.03
2022-09-12T10:40:00.333Z,99091.81
2022-09-12T10:42:52.017Z,99088.91
2022-09-12T10:45:30.237Z,99080.75
2022-09-12T10:48:06.826Z,99072.81
2022-09-12T10:50:43.554Z,99071.75
2022-09-12T10:53:21.571Z,99065.81
2022-09-12T10:56:12.097Z,99063.69
2022-09-12T10:59:14.687Z,99054.22
2022-09-12T11:01:49.971Z,99051.41
2022-09-12T11:04:30.544Z,99053.41
2022-09-12T11:07:36.757Z,99047.03
2022-09-12T11:10:22.978Z,99044.00
2022-09-12T11:13:06.522Z,99046.81
2022-09-12T11:15:58.004Z,99051.75
2022-09-12T11:19:03.974Z,99053.72
2022-09-12T11:21:53.461Z,99049.06
2022-09-12T11:25:09.014Z,99050.91
2022-09-12T11:28:00.303Z,99040.09
2022-09-12T11:30:39.109Z,99045.78
2022-09-12T11:33:47.941Z,99043.97
2022-09-12T11:36:37.868Z,99043.72
2022-09-12T11:39:16.699Z,99055.53
2022-09-12T11:41:52.543Z,99053.31
2022-09-12T11:44:26.761Z,99051.53
2022-09-12T11:46:55.661Z,99052.59
2022-09-12T11:49:35.776Z,99053.47
2022-09-12T11:52:14.694Z,99050.00
2022-09-12T11:54:53.549Z,99049.75
2022-09-12T11:57:32.774Z,99049.47
2022-09-12T12:00:07.863Z,99041.31
2022-09-12T12:02:45.171Z,99043.75
2022-09-12T12:05:23.717Z,99053.84
2022-09-12T12:07:56.912Z,99052.16
2022-09-12T12:10:34.007Z,99051.13
2022-09-12T12:13:13.992Z,99052.75
2022-09-12T12:15:50.207Z,99056.50
2022-09-12T12:18:23.881Z,99053.16
2022-09-12T12:20:54.862Z,99047.50
2022-09-12T12:23:32.328Z,99051.22
2022-09-12T12:26:03.459Z,99044.25
2022-09-12T12:29:03.502Z,99037.72
2022-09-12T12:31:32.512Z,99031.69
2022-09-12T12:34:31.512Z,99031.91
2022-09-12T12:37:21.272Z,99031.00
2022-09-12T12:40:03.341Z,99028.91
2022-09-12T12:43:26.980Z,99036.13
2022-09-12T12:46:14.297Z,99029.47
2022-09-12T12:49:09.707Z,99025.53
2022-09-12T12:51:57.231Z,99019.78
2022-09-12T12:54:59.078Z,99013.13
2022-09-12T12:57:50.213Z,99013.94
2022-09-12T13:00:34.606Z,99008.19
2022-09-12T13:03:24.158Z,99013.75
2022-09-12T13:06:01.725Z,98996.97
2022-09-12T13:08:34.343Z,98995.19
2022-09-12T13:11:09.559Z,98994.19
2022-09-12T13:13:44.513Z,98994.19
2022-09-12T13:16:29.935Z,98990.81
2022-09-12T13:19:08.682Z,98995.19
2022-09-12T13:21:38.607Z,98996.81
2022-09-12T13:24:20.052Z,98996.81
2022-09-12T13:26:49.620Z,98989.72
2022-09-12T13:29:20.936Z,98985.91
2022-09-12T13:31:54.020Z,98985.50
2022-09-12T13:34:29.246Z,98981.47
2022-09-12T13:37:31.292Z,98983.38
2022-09-12T13:40:17.614Z,98980.53
2022-09-12T13:42:49.876Z,98988.06
2022-09-12T13:45:23.224Z,98973.63
2022-09-12T13:47:58.857Z,98979.66
2022-09-12T13:50:40.023Z,98971.53
2022-09-12T13:53:17.237Z,98967.81
2022-09-12T13:55:53.803Z,98972.56
2022-09-12T13:58:30.214Z,98966.13
2022-09-12T14:01:07.948Z,98972.25
2022-09-12T14:04:00.864Z,98968.53
2022-09-12T14:06:45.484Z,98970.34
2022-09-12T14:09:21.825Z,98969.53
2022-09-12T14:11:54.280Z,98966.63
2022-09-12T14:14:34.450Z,98969.00
2022-09-12T14:17:18.983Z,98973.84
2022-09-12T14:19:54.400Z,98965.34
2022-09-12T14:22:24.564Z,98950.81
2022-09-12T14:24:54.747Z,98960.91
2022-09-12T14:27:29.328Z,98962.25
2022-09-12T14:30:07.604Z,98960.00
2022-09-12T14:32:37.507Z,98957.22
2022-09-12T14:35:24.668Z,98953.84
2022-09-12T14:37:55.195Z,98955.91
2022-09-12T14:40:27.652Z,98950.75
2022-09-12T14:43:00.617Z,98948.34
2022-09-12T14:45:34.205Z,98953.13
2022-09-12T14:48:04.439Z,98940.41
2022-09-12T14:51:00.721Z,98942.75
2022-09-12T14:53:38.156Z,98940.63
2022-09-12T14:56:14.816Z,98938.53
2022-09-12T14:58:49.391Z,98942.19
2022-09-12T15:01:28.539Z,98942.00
2022-09-12T15:04:40.809Z,98933.13
2022-09-12T15:07:27.582Z,98937.56
2022-09-12T15:10:01.578Z,98927.38
2022-09-12T15:12:30.839Z,98928.28
2022-09-12T15:15:14.288Z,98927.28
2022-09-12T15:17:43.506Z,98923.56
2022-09-12T15:20:13.317Z,98921.44
2022-09-12T15:22:44.848Z,98922.06
2022-09-12T15:25:15.364Z,98925.38
2022-09-12T15:27:43.921Z,98929.81
2022-09-12T15:30:14.806Z,98928.63
2022-09-12T15:32:45.839Z,98932.88
2022-09-12T15:35:18.478Z,98925.81
2022-09-12T15:37:47.338Z,98924.81
2022-09-12T15:40:18.185Z,98924.59
2022-09-12T15:42:46.893Z,98924.09
2022-09-12T15:45:23.591Z,98924.50
2022-09-12T15:47:54.602Z,98926.72
2022-09-12T15:50:23.341Z,98923.00
2022-09-12T15:52:52.443Z,98921.16
2022-09-12T15:55:26.203Z,98923.19
2022-09-12T15:57:54.902Z,98929.59
2022-09-12T16:00:24.103Z,98929.56
2022-09-12T16:02:54.930Z,98924.81
2022-09-12T16:05:31.866Z,98926.09
2022-09-12T16:08:03.648Z,98931.03
2022-09-12T16:10:33.747Z,98926.00
2022-09-12T16:13:04.404Z,98924.66
2022-09-12T16:15:34.079Z,98911.38
2022-09-12T16:18:02.687Z,98923.94
2022-09-12T16:20:31.263Z,98917.56
2022-09-12T16:22:59.850Z,98915.44
2022-09-12T16:25:28.523Z,98909.81
2022-09-12T16:27:58.687Z,98921.34
2022-09-12T16:30:27.814Z,98912.16
2022-09-12T16:32:56.614Z,98919.25
2022-09-12T16:35:25.313Z,98909.56
2022-09-12T16:37:54.283Z,98913.41
2022-09-12T16:40:23.612Z,98908.03
2022-09-12T16:42:52.400Z,98906.78
2022-09-12T16:45:22.514Z,98897.41
2022-09-12T16:47:51.225Z,98902.69
2022-09-12T16:50:20.041Z,98897.03
2022-09-12T16:52:48.796Z,98901.06
2022-09-12T16:55:21.302Z,98892.47
2022-09-12T16:57:50.691Z,98899.06
2022-09-12T17:00:21.092Z,98899.41
2022-09-12T17:02:50.906Z,98889.06
2022-09-12T17:05:20.695Z,98891.03
2022-09-12T17:07:49.886Z,98893.31
2022-09-12T17:10:18.959Z,98887.63
2022-09-12T17:12:48.524Z,98881.41
2022-09-12T17:15:17.658Z,98884.00
2022-09-12T17:17:48.173Z,98879.97
2022-09-12T17:20:17.558Z,98877.31
2022-09-12T17:22:46.200Z,98872.78
2022-09-12T17:25:14.999Z,98883.28
2022-09-12T17:27:44.172Z,98883.47
2022-09-12T17:30:14.115Z,98879.19
2022-09-12T17:32:43.241Z,98877.63
2022-09-12T17:35:13.901Z,98884.41
2022-09-12T17:37:42.895Z,98879.81
2022-09-12T17:40:12.594Z,98879.59
2022-09-12T17:42:43.314Z,98875.31
2022-09-12T17:45:18.195Z,98880.25
2022-09-12T17:47:47.419Z,98885.38
2022-09-12T17:50:31.308Z,98883.22
2022-09-12T17:53:01.433Z,98890.38
2022-09-12T17:55:32.154Z,98883.38
2022-09-12T17:58:02.255Z,98884.47
2022-09-12T18:00:46.193Z,98887.19
2022-09-12T18:03:15.934Z,98881.22
2022-09-12T18:05:50.934Z,98886.13
2022-09-12T18:08:20.509Z,98889.94
2022-09-12T18:10:50.018Z,98885.16
2022-09-12T18:13:20.375Z,98885.22
2022-09-12T18:15:50.497Z,98885.81
2022-09-12T18:18:57.230Z,98882.09
2022-09-12T18:21:33.799Z,98888.63
2022-09-12T18:24:04.815Z,98885.41
2022-09-12T18:26:34.655Z,98887.31
2022-09-12T18:29:03.423Z,98885.41
2022-09-12T18:31:32.846Z,98890.31
2022-09-12T18:34:28.519Z,98892.25
2022-09-12T18:36:59.178Z,98890.69
2022-09-12T18:39:28.164Z,98887.69
2022-09-12T18:41:57.478Z,98894.25
2022-09-12T18:44:28.147Z,98889.94
2022-09-12T18:46:56.836Z,98890.22
2022-09-12T18:49:25.606Z,98891.34
2022-09-12T18:51:54.472Z,98899.72
2022-09-12T18:54:24.874Z,98897.84
2022-09-12T18:56:54.465Z,98901.38
2022-09-12T18:59:24.360Z,98893.25
2022-09-12T19:01:53.324Z,98892.72
2022-09-12T19:04:22.458Z,98891.13
2022-09-12T19:06:53.116Z,98891.69
2022-09-12T19:09:25.886Z,98887.63
2022-09-12T19:11:56.338Z,98884.09
2022-09-12T19:14:27.736Z,98881.97
2022-09-12T19:16:58.285Z,98889.81
2022-09-12T19:19:28.271Z,98884.47
2022-09-12T19:21:57.814Z,98881.19
2022-09-12T19:24:29.392Z,98872.00
2022-09-12T19:27:09.699Z,98869.59
2022-09-12T19:29:41.821Z,98869.34
2022-09-12T19:32:11.758Z,98877.75
2022-09-12T19:34:40.878Z,98871.53
2022-09-12T19:37:09.719Z,98866.94
2022-09-12T19:39:43.002Z,98867.47
2022-09-12T19:42:11.930Z,98872.06
2022-09-12T19:44:41.542Z,98866.13
2022-09-12T19:47:11.548Z,98861.53
2022-09-12T19:49:42.212Z,98873.97
2022-09-12T19:52:14.354Z,98861.00
2022-09-12T19:54:46.927Z,98858.59
2022-09-12T19:57:15.594Z,98865.31
2022-09-12T19:59:45.295Z,98863.97
2022-09-12T20:02:14.449Z,98863.16
2022-09-12T20:04:43.323Z,98856.66
2022-09-12T20:07:12.090Z,98858.81
2022-09-12T20:09:40.779Z,98860.16
2022-09-12T20:12:11.004Z,98863.09
2022-09-12T20:14:39.600Z,98867.44
2022-09-12T20:17:08.458Z,98863.91
2022-09-12T20:19:37.377Z,98857.72
2022-09-12T20:22:06.034Z,98858.22
2022-09-12T20:24:35.633Z,98865.25
2022-09-12T20:27:06.271Z,98864.97
2022-09-12T20:29:36.319Z,98857.97
2022-09-12T20:32:05.009Z,98863.63
2022-09-12T20:34:33.650Z,98859.84
2022-09-12T20:37:02.408Z,98854.41
2022-09-12T20:39:31.198Z,98857.38
2022-09-12T20:41:59.839Z,98850.09
2022-09-12T20:44:30.322Z,98849.28
2022-09-12T20:47:00.475Z,98851.72
2022-09-12T20:49:29.159Z,98841.19
2022-09-12T20:51:57.788Z,98838.78
2022-09-12T20:54:26.499Z,98850.63
2022-09-12T20:56:56.186Z,98846.25
2022-09-12T20:59:24.806Z,98848.94
2022-09-12T21:01:53.451Z,98841.91
2022-09-12T21:04:23.994Z,98839.41
2022-09-12T21:06:52.754Z,98841.59
2022-09-12T21:09:21.509Z,98841.38
2022-09-12T21:11:50.508Z,98841.41
2022-09-12T21:14:19.023Z,98835.72
2022-09-12T21:16:47.666Z,98833.00
2022-09-12T21:19:16.982Z,98829.72
2022-09-12T21:21:47.094Z,98827.50
2022-09-12T21:24:16.087Z,98831.00
2022-09-12T21:26:44.653Z,98825.59
2022-09-12T21:29:13.614Z,98825.91
2022-09-12T21:31:44.070Z,98818.09
2022-09-12T21:34:12.946Z,98820.22
2022-09-12T21:36:41.549Z,98818.00
2022-09-12T21:39:11.677Z,98821.22
2022-09-12T21:41:40.343Z,98823.16
2022-09-12T21:44:09.490Z,98812.06
2022-09-12T21:46:38.229Z,98810.19
2022-09-12T21:49:07.044Z,98812.81
2022-09-12T21:51:37.723Z,98814.13
2022-09-12T21:54:06.835Z,98813.09
2022-09-12T21:56:36.839Z,98810.91
2022-09-12T21:59:05.622Z,98805.47
2022-09-12T22:01:34.286Z,98810.06
2022-09-12T22:04:03.111Z,98797.38
2022-09-12T22:06:31.750Z,98797.41
2022-09-12T22:09:00.371Z,98786.09
2022-09-12T22:11:29.037Z,98789.03
2022-09-12T22:13:59.061Z,98783.34
2022-09-12T22:16:27.807Z,98784.03
2022-09-12T22:18:57.920Z,98780.81
2022-09-12T22:21:26.551Z,98776.75
2022-09-12T22:24:12.323Z,98784.88
2022-09-12T22:26:46.219Z,98779.19
2022-09-12T22:29:16.281Z,98778.88
2022-09-12T22:31:44.972Z,98781.56
2022-09-12T22:34:13.730Z,98775.97
2022-09-12T22:36:42.750Z,98769.69
2022-09-12T22:39:11.414Z,98766.16
2022-09-12T22:41:40.107Z,98761.06
2022-09-12T22:44:08.719Z,98761.88
2022-09-12T22:46:39.639Z,98755.16
2022-09-12T22:49:08.864Z,98742.69
2022-09-12T22:51:37.673Z,98741.59
2022-09-12T22:54:06.886Z,98736.75
2022-09-12T22:56:35.681Z,98742.13
2022-09-12T22:59:04.592Z,98735.22
2022-09-12T23:01:33.297Z,98735.22
2022-09-12T23:04:04.216Z,98726.53
2022-09-12T23:06:32.881Z,98724.06
2022-09-12T23:09:01.880Z,98719.50
2022-09-12T23:11:30.531Z,98714.66
2022-09-12T23:13:59.129Z,98718.59
2022-09-12T23:16:28.539Z,98719.91
2022-09-12T23:18:57.317Z,98717.19
2022-09-12T23:21:27.438Z,98712.06
2022-09-12T23:23:56.335Z,98716.91
2022-09-12T23:26:28.283Z,98703.50
2022-09-12T23:28:59.520Z,98702.66
2022-09-12T23:31:31.013Z,98707.97
2022-09-12T23:34:03.109Z,98702.34
2022-09-12T23:36:34.282Z,98702.06
2022-09-12T23:39:03.003Z,98699.91
2022-09-12T23:41:31.738Z,98699.88
2022-09-12T23:44:00.745Z,98696.09
2022-09-12T23:46:29.475Z,98692.88
2022-09-12T23:48:58.104Z,98694.81
2022-09-12T23:51:27.217Z,98688.66
2022-09-12T23:53:57.271Z,98688.59
2022-09-12T23:56:26.172Z,98687.50
2022-09-12T23:58:54.735Z,98691.25
